Flugplatz Grafenwohr Army Air Field

Bericht für ETIC

vom 17.07. um 23:56 UTC

kein Wind

Sichtweite 10 km oder mehr

gering bewölkt in 7000 ft

Temperatur 12.8°C

Taupunkt 11.2°C

Luftfeuchtigkeit 90%

Luftdruck 1014 hPa

ETIC 172356Z AUTO 00000KT 9999 FEW070 13/11 A2993 RMK AO2 SLP127 T01280112 10230 20128 50004 $

Prognose für ETIC

vom 17.07. um 00:00 UTC

Am 17.07. zwischen 00:00 UTC und 00:00 UTC

variable Windrichtung mit 6 kt

Sichtweite 10 km oder mehr

keine Wolken


Zwischen 00:00 und 00:00 UTC übergehend zu

Wind 9 kt aus 270°

Sichtweite 10 km oder mehr

aufgelockert bewölkt in 5000 ft


Zwischen 00:00 und 00:00 UTC übergehend zu

variable Windrichtung mit 6 kt

Sichtweite 10 km oder mehr

aufgebrochene Bewölkung in 7000 ft

TAF ETIC 172202Z 1722/1904 VRB06KT 9999 SKC QNH2990INS BECMG 1812/1813 27009KT 9999 SCT050 QNH2991INS BECMG 1822/1823 VRB06KT 9999 BKN070 QNH2992INS TX26/1813Z TN10/1804Z
Impressum